EZY815 EGKK-EGPH
Flight info
| Callsign | EZY815 |
|---|---|
| Flight time | N/A |
| Altitude | 38000 |
| Route | LAM L10 BPK UN601 RIBEL DCT INPIP |
| Aircraft | A319/M-SDE3FGHIRWY/LB1 |
Departure
| Time | 2026-05-05 21:58 |
|---|---|
| Airport | London Gatwick Airport (EGKK) |
Arrival
| Time | N/A |
|---|---|
| Airport | Edinburgh Airport (EGPH) |
| Time | Latitude | Longitude | Altitude | Speed | Heading |
|---|---|---|---|---|---|
| 2026-05-05 21:26 | 51.15586 | -0.17682 | 204 ft | 0 kts | 348° |
| 2026-05-05 21:45 | 51.15564 | -0.17674 | 213 ft | 4 kts | 343° |
| 2026-05-05 21:45 | 51.15539 | -0.17659 | 205 ft | 4 kts | 327° |
| 2026-05-05 21:45 | 51.15523 | -0.17632 | 215 ft | 4 kts | 273° |
| 2026-05-05 21:45 | 51.15523 | -0.17621 | 214 ft | 0 kts | 257° |
| 2026-05-05 21:48 | 51.15522 | -0.17628 | 214 ft | 3 kts | 257° |
| 2026-05-05 21:49 | 51.15506 | -0.17737 | 204 ft | 14 kts | 257° |
| 2026-05-05 21:49 | 51.15485 | -0.17897 | 207 ft | 15 kts | 258° |
| 2026-05-05 21:49 | 51.15462 | -0.18059 | 208 ft | 15 kts | 258° |
| 2026-05-05 21:49 | 51.15439 | -0.18228 | 206 ft | 16 kts | 257° |
| 2026-05-05 21:50 | 51.15365 | -0.18269 | 209 ft | 13 kts | 167° |
| 2026-05-05 21:50 | 51.15275 | -0.18237 | 204 ft | 13 kts | 167° |
| 2026-05-05 21:50 | 51.15191 | -0.18262 | 208 ft | 13 kts | 239° |
| 2026-05-05 21:50 | 51.15175 | -0.18411 | 204 ft | 14 kts | 257° |
| 2026-05-05 21:51 | 51.15153 | -0.18565 | 209 ft | 15 kts | 257° |
| 2026-05-05 21:51 | 51.15130 | -0.18727 | 203 ft | 15 kts | 257° |
| 2026-05-05 21:51 | 51.15107 | -0.18897 | 207 ft | 16 kts | 258° |
| 2026-05-05 21:51 | 51.15085 | -0.19068 | 209 ft | 16 kts | 257° |
| 2026-05-05 21:52 | 51.15036 | -0.19420 | 204 ft | 17 kts | 257° |
| 2026-05-05 21:52 | 51.15011 | -0.19604 | 210 ft | 17 kts | 257° |
| 2026-05-05 21:52 | 51.14983 | -0.19805 | 209 ft | 20 kts | 257° |
| 2026-05-05 21:53 | 51.14952 | -0.20026 | 207 ft | 21 kts | 257° |
| 2026-05-05 21:53 | 51.14920 | -0.20255 | 203 ft | 21 kts | 257° |
| 2026-05-05 21:53 | 51.14888 | -0.20488 | 203 ft | 22 kts | 258° |
| 2026-05-05 21:53 | 51.14855 | -0.20725 | 210 ft | 22 kts | 258° |
| 2026-05-05 21:54 | 51.14822 | -0.20964 | 211 ft | 22 kts | 257° |
| 2026-05-05 21:54 | 51.14785 | -0.21201 | 204 ft | 22 kts | 254° |
| 2026-05-05 21:54 | 51.14741 | -0.21393 | 207 ft | 15 kts | 220° |
| 2026-05-05 21:54 | 51.14657 | -0.21356 | 208 ft | 15 kts | 142° |
| 2026-05-05 21:55 | 51.14622 | -0.21329 | 207 ft | 0 kts | 168° |
| 2026-05-05 21:56 | 51.14617 | -0.21327 | 206 ft | 3 kts | 168° |
| 2026-05-05 21:56 | 51.14552 | -0.21289 | 212 ft | 16 kts | 143° |
| 2026-05-05 21:56 | 51.14525 | -0.21131 | 211 ft | 10 kts | 78° |
| 2026-05-05 21:57 | 51.14530 | -0.21098 | 209 ft | 0 kts | 78° |
| 2026-05-05 21:57 | 51.14530 | -0.21096 | 208 ft | 1 kts | 78° |
| 2026-05-05 21:57 | 51.14571 | -0.20788 | 214 ft | 68 kts | 78° |
| 2026-05-05 21:57 | 51.14727 | -0.19675 | 214 ft | 136 kts | 77° |
| 2026-05-05 21:58 | 51.14960 | -0.17971 | 462 ft | 166 kts | 77° |
| 2026-05-05 21:58 | 51.15214 | -0.16134 | 1170 ft | 172 kts | 77° |
| 2026-05-05 21:58 | 51.15494 | -0.14210 | 1735 ft | 192 kts | 77° |
| 2026-05-05 21:58 | 51.15827 | -0.11997 | 2232 ft | 217 kts | 76° |
| 2026-05-05 21:59 | 51.16179 | -0.09533 | 2862 ft | 239 kts | 77° |
| 2026-05-05 21:59 | 51.16621 | -0.06924 | 3629 ft | 251 kts | 66° |
| 2026-05-05 21:59 | 51.17605 | -0.04587 | 4623 ft | 256 kts | 50° |
| 2026-05-05 21:59 | 51.18753 | -0.02326 | 5430 ft | 262 kts | 50° |
| 2026-05-05 22:00 | 51.19899 | -0.00096 | 6612 ft | 260 kts | 49° |
| 2026-05-05 22:00 | 51.21038 | 0.02209 | 7617 ft | 267 kts | 51° |
| 2026-05-05 22:00 | 51.22147 | 0.04598 | 8559 ft | 272 kts | 52° |
| 2026-05-05 22:00 | 51.23269 | 0.07059 | 9495 ft | 277 kts | 52° |
| 2026-05-05 22:01 | 51.24421 | 0.09559 | 10374 ft | 282 kts | 55° |
| 2026-05-05 22:01 | 51.25196 | 0.12487 | 11152 ft | 292 kts | 76° |
| 2026-05-05 22:01 | 51.25581 | 0.15698 | 12040 ft | 295 kts | 78° |
| 2026-05-05 22:01 | 51.25965 | 0.18944 | 12784 ft | 301 kts | 78° |
| 2026-05-05 22:02 | 51.26356 | 0.22234 | 13036 ft | 302 kts | 78° |
| 2026-05-05 22:02 | 51.26747 | 0.25536 | 13572 ft | 305 kts | 78° |
| 2026-05-05 22:02 | 51.27198 | 0.28868 | 14428 ft | 307 kts | 70° |
| 2026-05-05 22:02 | 51.28227 | 0.31848 | 15181 ft | 308 kts | 49° |
| 2026-05-05 22:03 | 51.29865 | 0.34028 | 15927 ft | 310 kts | 28° |
| 2026-05-05 22:03 | 51.31911 | 0.35122 | 16660 ft | 313 kts | 7° |
| 2026-05-05 22:03 | 51.34080 | 0.34955 | 17284 ft | 316 kts | 345° |
| 2026-05-05 22:03 | 51.36153 | 0.33740 | 18044 ft | 319 kts | 338° |
| 2026-05-05 22:04 | 51.38228 | 0.32385 | 18716 ft | 323 kts | 338° |
| 2026-05-05 22:04 | 51.40322 | 0.31015 | 19339 ft | 327 kts | 338° |
| 2026-05-05 22:04 | 51.42436 | 0.29633 | 20015 ft | 330 kts | 337° |
| 2026-05-05 22:04 | 51.44574 | 0.28240 | 20680 ft | 333 kts | 337° |
| 2026-05-05 22:05 | 51.46726 | 0.26840 | 21308 ft | 336 kts | 337° |
| 2026-05-05 22:05 | 51.48906 | 0.25423 | 21943 ft | 340 kts | 337° |
| 2026-05-05 22:05 | 51.51111 | 0.23991 | 22571 ft | 343 kts | 337° |
| 2026-05-05 22:05 | 51.53336 | 0.22541 | 23208 ft | 347 kts | 337° |
| 2026-05-05 22:06 | 51.55578 | 0.21077 | 23788 ft | 350 kts | 336° |
| 2026-05-05 22:06 | 51.57852 | 0.19594 | 24301 ft | 354 kts | 336° |
| 2026-05-05 22:06 | 51.60133 | 0.18103 | 24818 ft | 357 kts | 336° |
| 2026-05-05 22:06 | 51.62406 | 0.16443 | 25324 ft | 359 kts | 328° |
| 2026-05-05 22:07 | 51.64450 | 0.14128 | 25819 ft | 361 kts | 317° |
| 2026-05-05 22:07 | 51.66205 | 0.11155 | 25996 ft | 373 kts | 305° |
| 2026-05-05 22:07 | 51.67664 | 0.07619 | 26129 ft | 386 kts | 301° |
| 2026-05-05 22:07 | 51.69137 | 0.03911 | 26293 ft | 398 kts | 301° |
| 2026-05-05 22:08 | 51.70649 | 0.00118 | 26629 ft | 404 kts | 301° |
| 2026-05-05 22:08 | 51.72179 | -0.03710 | 27135 ft | 407 kts | 301° |
| 2026-05-05 22:08 | 51.73794 | -0.07483 | 27576 ft | 412 kts | 307° |
| 2026-05-05 22:08 | 51.75769 | -0.10839 | 27968 ft | 411 kts | 316° |
| 2026-05-05 22:09 | 51.77260 | -0.12760 | 28053 ft | 402 kts | 323° |
| 2026-05-05 22:09 | 51.80344 | -0.15779 | 28225 ft | 382 kts | 327° |
| 2026-05-05 22:09 | 51.82652 | -0.17960 | 28316 ft | 389 kts | 326° |
| 2026-05-05 22:09 | 51.85020 | -0.20214 | 28463 ft | 402 kts | 326° |
| 2026-05-05 22:10 | 51.87466 | -0.22554 | 28607 ft | 414 kts | 326° |
| 2026-05-05 22:10 | 51.89974 | -0.24961 | 28753 ft | 424 kts | 326° |
| 2026-05-05 22:10 | 51.92523 | -0.27405 | 29057 ft | 430 kts | 326° |
| 2026-05-05 22:10 | 51.95117 | -0.29895 | 29444 ft | 434 kts | 326° |
| 2026-05-05 22:11 | 51.97719 | -0.32392 | 29846 ft | 437 kts | 326° |
| 2026-05-05 22:11 | 52.00352 | -0.34916 | 30212 ft | 441 kts | 326° |
| 2026-05-05 22:11 | 52.02999 | -0.37452 | 30558 ft | 444 kts | 326° |
| 2026-05-05 22:11 | 52.05664 | -0.40017 | 30906 ft | 446 kts | 326° |
| 2026-05-05 22:12 | 52.08340 | -0.42604 | 31249 ft | 448 kts | 326° |
| 2026-05-05 22:12 | 52.11025 | -0.45200 | 31598 ft | 451 kts | 326° |
| 2026-05-05 22:12 | 52.13728 | -0.47814 | 31932 ft | 453 kts | 326° |
| 2026-05-05 22:12 | 52.16443 | -0.50444 | 32267 ft | 455 kts | 326° |
| 2026-05-05 22:13 | 52.19161 | -0.53080 | 32678 ft | 455 kts | 326° |
| 2026-05-05 22:13 | 52.21870 | -0.55708 | 33156 ft | 453 kts | 327° |
| 2026-05-05 22:13 | 52.24581 | -0.58344 | 33627 ft | 452 kts | 327° |
| 2026-05-05 22:13 | 52.27284 | -0.60977 | 34087 ft | 451 kts | 327° |
| 2026-05-05 22:14 | 52.29966 | -0.63597 | 34516 ft | 449 kts | 327° |
| 2026-05-05 22:14 | 52.32633 | -0.66204 | 34945 ft | 447 kts | 327° |
| 2026-05-05 22:14 | 52.35308 | -0.68818 | 35310 ft | 446 kts | 327° |
| 2026-05-05 22:14 | 52.37968 | -0.71425 | 35653 ft | 446 kts | 327° |
| 2026-05-05 22:15 | 52.39727 | -0.73153 | 35867 ft | 446 kts | 327° |
| 2026-05-05 22:15 | 52.42391 | -0.75770 | 36185 ft | 445 kts | 327° |
| 2026-05-05 22:15 | 52.45042 | -0.78375 | 36491 ft | 445 kts | 327° |
| 2026-05-05 22:15 | 52.47700 | -0.80989 | 36798 ft | 445 kts | 327° |
| 2026-05-05 22:16 | 52.50348 | -0.83603 | 37099 ft | 445 kts | 327° |
| 2026-05-05 22:16 | 52.53005 | -0.86231 | 37389 ft | 444 kts | 327° |
| 2026-05-05 22:16 | 52.55650 | -0.88847 | 37689 ft | 444 kts | 327° |
| 2026-05-05 22:16 | 52.58291 | -0.91463 | 37959 ft | 444 kts | 327° |
| 2026-05-05 22:17 | 52.60939 | -0.94092 | 38034 ft | 442 kts | 327° |
| 2026-05-05 22:17 | 52.66185 | -0.99312 | 38032 ft | 440 kts | 327° |
| 2026-05-05 22:18 | 52.71407 | -1.04518 | 38034 ft | 439 kts | 327° |
| 2026-05-05 22:18 | 52.76647 | -1.09753 | 38059 ft | 440 kts | 327° |
| 2026-05-05 22:19 | 52.81878 | -1.14990 | 38062 ft | 440 kts | 327° |
| 2026-05-05 22:19 | 52.87098 | -1.20248 | 38055 ft | 439 kts | 326° |
| 2026-05-05 22:20 | 52.92314 | -1.25514 | 38061 ft | 439 kts | 326° |
| 2026-05-05 22:20 | 52.97542 | -1.30795 | 38060 ft | 439 kts | 326° |
| 2026-05-05 22:21 | 53.02754 | -1.36078 | 38069 ft | 439 kts | 326° |
| 2026-05-05 22:21 | 53.07965 | -1.41380 | 38062 ft | 439 kts | 326° |
| 2026-05-05 22:22 | 53.13168 | -1.46701 | 38064 ft | 439 kts | 326° |
| 2026-05-05 22:22 | 53.18366 | -1.52028 | 38072 ft | 439 kts | 326° |
| 2026-05-05 22:23 | 53.23572 | -1.57358 | 38084 ft | 438 kts | 326° |
| 2026-05-05 22:23 | 53.28727 | -1.62674 | 38091 ft | 438 kts | 326° |
| 2026-05-05 22:24 | 53.33943 | -1.68054 | 38095 ft | 438 kts | 326° |
| 2026-05-05 22:24 | 53.39093 | -1.73372 | 38087 ft | 438 kts | 326° |
| 2026-05-05 22:25 | 53.44271 | -1.78746 | 38093 ft | 438 kts | 326° |
| 2026-05-05 22:25 | 53.49449 | -1.84141 | 38091 ft | 438 kts | 326° |
| 2026-05-05 22:26 | 53.54628 | -1.89539 | 38089 ft | 438 kts | 326° |
| 2026-05-05 22:26 | 53.59800 | -1.94953 | 38088 ft | 438 kts | 326° |
| 2026-05-05 22:27 | 53.64973 | -2.00373 | 38091 ft | 438 kts | 326° |
| 2026-05-05 22:27 | 53.70142 | -2.05827 | 38089 ft | 438 kts | 325° |
| 2026-05-05 22:28 | 53.75407 | -2.11008 | 38099 ft | 440 kts | 334° |
| 2026-05-05 22:28 | 53.81090 | -2.14896 | 38094 ft | 440 kts | 335° |
| 2026-05-05 22:29 | 53.86770 | -2.18767 | 38092 ft | 440 kts | 335° |
| 2026-05-05 22:29 | 53.92445 | -2.22653 | 38088 ft | 440 kts | 335° |
| 2026-05-05 22:30 | 53.98124 | -2.26560 | 38101 ft | 440 kts | 335° |
| 2026-05-05 22:30 | 54.03805 | -2.30467 | 38102 ft | 440 kts | 335° |
| 2026-05-05 22:31 | 54.09481 | -2.34385 | 38097 ft | 440 kts | 335° |
| 2026-05-05 22:31 | 54.15151 | -2.38314 | 38095 ft | 440 kts | 335° |
| 2026-05-05 22:32 | 54.20821 | -2.42252 | 38093 ft | 440 kts | 335° |
| 2026-05-05 22:32 | 54.26492 | -2.46203 | 38108 ft | 440 kts | 335° |
| 2026-05-05 22:33 | 54.32157 | -2.50166 | 38105 ft | 440 kts | 335° |
| 2026-05-05 22:33 | 54.37832 | -2.54161 | 38080 ft | 441 kts | 335° |
| 2026-05-05 22:34 | 54.43519 | -2.58157 | 38082 ft | 442 kts | 335° |
| 2026-05-05 22:34 | 54.49214 | -2.62163 | 37478 ft | 445 kts | 334° |
| 2026-05-05 22:34 | 54.52100 | -2.64204 | 36362 ft | 454 kts | 334° |
| 2026-05-05 22:35 | 54.55047 | -2.66296 | 35448 ft | 458 kts | 334° |